sensor_id;sensor_type;location;lat;lon;timestamp;P1;durP1;ratioP1;P2;durP2;ratioP2
6342;SDS011;3204;42.698;23.298;2024-01-07T00:01:59;44.77;;;24.03;;
6342;SDS011;3204;42.698;23.298;2024-01-07T00:04:24;39.77;;;24.67;;
6342;SDS011;3204;42.698;23.298;2024-01-07T00:06:49;42.70;;;24.67;;
6342;SDS011;3204;42.698;23.298;2024-01-07T00:09:15;45.40;;;25.70;;
6342;SDS011;3204;42.698;23.298;2024-01-07T00:11:41;40.97;;;25.27;;
6342;SDS011;3204;42.698;23.298;2024-01-07T00:14:07;47.33;;;25.83;;
6342;SDS011;3204;42.698;23.298;2024-01-07T00:16:32;42.13;;;24.80;;
6342;SDS011;3204;42.698;23.298;2024-01-07T00:18:58;45.40;;;26.70;;
6342;SDS011;3204;42.698;23.298;2024-01-07T00:21:23;48.73;;;26.53;;
6342;SDS011;3204;42.698;23.298;2024-01-07T00:23:49;44.70;;;24.40;;
6342;SDS011;3204;42.698;23.298;2024-01-07T00:26:14;40.13;;;24.67;;
6342;SDS011;3204;42.698;23.298;2024-01-07T00:28:40;40.33;;;24.40;;
6342;SDS011;3204;42.698;23.298;2024-01-07T00:31:05;41.33;;;22.20;;
6342;SDS011;3204;42.698;23.298;2024-01-07T00:33:34;36.33;;;21.90;;
6342;SDS011;3204;42.698;23.298;2024-01-07T00:35:59;38.50;;;23.40;;
6342;SDS011;3204;42.698;23.298;2024-01-07T00:38:25;40.33;;;24.43;;
6342;SDS011;3204;42.698;23.298;2024-01-07T00:40:50;42.97;;;24.17;;
6342;SDS011;3204;42.698;23.298;2024-01-07T00:43:15;39.07;;;24.20;;
6342;SDS011;3204;42.698;23.298;2024-01-07T00:45:41;40.67;;;23.53;;
6342;SDS011;3204;42.698;23.298;2024-01-07T00:48:06;41.13;;;22.80;;
6342;SDS011;3204;42.698;23.298;2024-01-07T00:50:32;39.07;;;22.70;;
6342;SDS011;3204;42.698;23.298;2024-01-07T00:52:57;38.43;;;22.77;;
6342;SDS011;3204;42.698;23.298;2024-01-07T00:55:23;39.53;;;22.60;;
6342;SDS011;3204;42.698;23.298;2024-01-07T00:57:49;39.57;;;23.93;;
6342;SDS011;3204;42.698;23.298;2024-01-07T01:00:14;41.80;;;22.83;;
6342;SDS011;3204;42.698;23.298;2024-01-07T01:02:40;42.13;;;24.47;;
6342;SDS011;3204;42.698;23.298;2024-01-07T01:05:06;36.63;;;23.00;;
6342;SDS011;3204;42.698;23.298;2024-01-07T01:07:31;35.27;;;23.07;;
6342;SDS011;3204;42.698;23.298;2024-01-07T01:09:57;42.60;;;22.70;;
6342;SDS011;3204;42.698;23.298;2024-01-07T01:12:23;38.00;;;23.13;;
6342;SDS011;3204;42.698;23.298;2024-01-07T01:14:48;42.10;;;23.27;;
6342;SDS011;3204;42.698;23.298;2024-01-07T01:17:14;40.97;;;23.77;;
6342;SDS011;3204;42.698;23.298;2024-01-07T01:19:39;43.90;;;23.93;;
6342;SDS011;3204;42.698;23.298;2024-01-07T01:22:05;37.67;;;23.60;;
6342;SDS011;3204;42.698;23.298;2024-01-07T01:24:30;57.93;;;31.40;;
6342;SDS011;3204;42.698;23.298;2024-01-07T01:26:55;65.67;;;33.87;;
6342;SDS011;3204;42.698;23.298;2024-01-07T01:29:21;62.30;;;30.97;;
6342;SDS011;3204;42.698;23.298;2024-01-07T01:31:46;57.13;;;28.37;;
6342;SDS011;3204;42.698;23.298;2024-01-07T01:34:12;40.07;;;23.03;;
6342;SDS011;3204;42.698;23.298;2024-01-07T01:36:37;33.93;;;21.87;;
6342;SDS011;3204;42.698;23.298;2024-01-07T01:39:02;34.67;;;21.10;;
6342;SDS011;3204;42.698;23.298;2024-01-07T01:41:28;30.20;;;20.00;;
6342;SDS011;3204;42.698;23.298;2024-01-07T01:44:00;33.07;;;20.57;;
6342;SDS011;3204;42.698;23.298;2024-01-07T01:46:26;37.90;;;21.13;;
6342;SDS011;3204;42.698;23.298;2024-01-07T01:48:53;31.50;;;20.73;;
6342;SDS011;3204;42.698;23.298;2024-01-07T01:51:19;35.87;;;20.03;;
6342;SDS011;3204;42.698;23.298;2024-01-07T01:53:45;30.87;;;18.93;;
6342;SDS011;3204;42.698;23.298;2024-01-07T01:56:12;29.37;;;18.40;;
6342;SDS011;3204;42.698;23.298;2024-01-07T01:58:41;28.77;;;18.80;;
6342;SDS011;3204;42.698;23.298;2024-01-07T02:01:07;25.77;;;18.43;;
6342;SDS011;3204;42.698;23.298;2024-01-07T02:03:33;34.30;;;17.30;;
6342;SDS011;3204;42.698;23.298;2024-01-07T02:05:58;25.10;;;16.87;;
6342;SDS011;3204;42.698;23.298;2024-01-07T02:08:24;25.20;;;17.30;;
6342;SDS011;3204;42.698;23.298;2024-01-07T02:10:50;29.30;;;17.83;;
6342;SDS011;3204;42.698;23.298;2024-01-07T02:13:15;28.00;;;18.00;;
6342;SDS011;3204;42.698;23.298;2024-01-07T02:15:40;32.77;;;17.80;;
6342;SDS011;3204;42.698;23.298;2024-01-07T02:18:06;25.47;;;17.47;;
6342;SDS011;3204;42.698;23.298;2024-01-07T02:20:32;29.87;;;17.77;;
6342;SDS011;3204;42.698;23.298;2024-01-07T02:22:57;31.60;;;19.37;;
6342;SDS011;3204;42.698;23.298;2024-01-07T02:25:23;28.90;;;19.13;;
6342;SDS011;3204;42.698;23.298;2024-01-07T02:27:49;30.50;;;19.90;;
6342;SDS011;3204;42.698;23.298;2024-01-07T02:30:14;29.37;;;19.40;;
6342;SDS011;3204;42.698;23.298;2024-01-07T02:32:39;38.53;;;20.53;;
6342;SDS011;3204;42.698;23.298;2024-01-07T02:35:05;30.47;;;20.00;;
6342;SDS011;3204;42.698;23.298;2024-01-07T02:37:31;37.97;;;20.80;;
6342;SDS011;3204;42.698;23.298;2024-01-07T02:39:56;31.20;;;20.77;;
6342;SDS011;3204;42.698;23.298;2024-01-07T02:42:22;34.13;;;20.67;;
6342;SDS011;3204;42.698;23.298;2024-01-07T02:44:47;30.97;;;19.50;;
6342;SDS011;3204;42.698;23.298;2024-01-07T02:47:12;34.63;;;20.07;;
6342;SDS011;3204;42.698;23.298;2024-01-07T02:49:38;39.37;;;21.07;;
6342;SDS011;3204;42.698;23.298;2024-01-07T02:52:03;31.03;;;19.03;;
6342;SDS011;3204;42.698;23.298;2024-01-07T02:54:29;29.73;;;19.70;;
6342;SDS011;3204;42.698;23.298;2024-01-07T02:56:54;31.47;;;19.37;;
6342;SDS011;3204;42.698;23.298;2024-01-07T02:59:20;32.73;;;19.57;;
6342;SDS011;3204;42.698;23.298;2024-01-07T03:01:45;33.50;;;22.27;;
6342;SDS011;3204;42.698;23.298;2024-01-07T03:04:12;35.17;;;23.53;;
6342;SDS011;3204;42.698;23.298;2024-01-07T03:06:40;32.57;;;19.87;;
6342;SDS011;3204;42.698;23.298;2024-01-07T03:09:05;29.87;;;20.67;;
6342;SDS011;3204;42.698;23.298;2024-01-07T03:11:31;35.57;;;23.40;;
6342;SDS011;3204;42.698;23.298;2024-01-07T03:13:57;32.20;;;18.03;;
6342;SDS011;3204;42.698;23.298;2024-01-07T03:16:22;24.50;;;17.27;;
6342;SDS011;3204;42.698;23.298;2024-01-07T03:18:49;28.87;;;17.93;;
6342;SDS011;3204;42.698;23.298;2024-01-07T03:23:43;25.13;;;17.60;;
6342;SDS011;3204;42.698;23.298;2024-01-07T03:26:09;21.07;;;16.47;;
6342;SDS011;3204;42.698;23.298;2024-01-07T03:28:34;25.07;;;16.63;;
6342;SDS011;3204;42.698;23.298;2024-01-07T03:31:03;23.77;;;16.97;;
6342;SDS011;3204;42.698;23.298;2024-01-07T03:33:30;24.50;;;15.90;;
6342;SDS011;3204;42.698;23.298;2024-01-07T03:35:55;26.47;;;17.03;;
6342;SDS011;3204;42.698;23.298;2024-01-07T03:38:21;20.90;;;16.17;;
6342;SDS011;3204;42.698;23.298;2024-01-07T03:40:46;24.83;;;16.20;;
6342;SDS011;3204;42.698;23.298;2024-01-07T03:43:12;22.60;;;15.53;;
6342;SDS011;3204;42.698;23.298;2024-01-07T03:45:37;9.60;;;8.80;;
6342;SDS011;3204;42.698;23.298;2024-01-07T03:48:02;9.97;;;8.63;;
6342;SDS011;3204;42.698;23.298;2024-01-07T03:50:28;8.80;;;7.13;;
6342;SDS011;3204;42.698;23.298;2024-01-07T03:52:53;6.77;;;6.17;;
6342;SDS011;3204;42.698;23.298;2024-01-07T03:55:19;5.70;;;5.20;;
6342;SDS011;3204;42.698;23.298;2024-01-07T03:57:44;5.90;;;5.50;;
6342;SDS011;3204;42.698;23.298;2024-01-07T04:00:09;10.97;;;6.80;;
6342;SDS011;3204;42.698;23.298;2024-01-07T04:02:35;7.77;;;7.07;;
6342;SDS011;3204;42.698;23.298;2024-01-07T04:05:00;5.97;;;5.60;;
6342;SDS011;3204;42.698;23.298;2024-01-07T04:07:26;5.53;;;5.13;;
6342;SDS011;3204;42.698;23.298;2024-01-07T04:09:51;5.87;;;5.37;;
6342;SDS011;3204;42.698;23.298;2024-01-07T04:12:16;5.20;;;4.90;;
6342;SDS011;3204;42.698;23.298;2024-01-07T04:14:43;5.53;;;3.93;;
6342;SDS011;3204;42.698;23.298;2024-01-07T04:17:08;5.70;;;5.27;;
6342;SDS011;3204;42.698;23.298;2024-01-07T04:19:35;5.17;;;4.87;;
6342;SDS011;3204;42.698;23.298;2024-01-07T04:22:03;5.40;;;4.97;;
6342;SDS011;3204;42.698;23.298;2024-01-07T04:24:29;4.90;;;4.50;;
6342;SDS011;3204;42.698;23.298;2024-01-07T04:26:54;5.17;;;4.73;;
6342;SDS011;3204;42.698;23.298;2024-01-07T04:29:19;5.13;;;4.67;;
6342;SDS011;3204;42.698;23.298;2024-01-07T04:31:45;5.77;;;5.37;;
6342;SDS011;3204;42.698;23.298;2024-01-07T04:34:10;5.87;;;5.50;;
6342;SDS011;3204;42.698;23.298;2024-01-07T04:36:36;5.37;;;4.97;;
6342;SDS011;3204;42.698;23.298;2024-01-07T04:39:01;4.73;;;4.33;;
6342;SDS011;3204;42.698;23.298;2024-01-07T04:41:27;5.93;;;5.53;;
6342;SDS011;3204;42.698;23.298;2024-01-07T04:43:52;7.37;;;6.70;;
6342;SDS011;3204;42.698;23.298;2024-01-07T04:46:18;5.63;;;5.23;;
6342;SDS011;3204;42.698;23.298;2024-01-07T04:48:43;5.90;;;5.40;;
6342;SDS011;3204;42.698;23.298;2024-01-07T04:51:08;5.30;;;4.83;;
6342;SDS011;3204;42.698;23.298;2024-01-07T04:53:34;7.27;;;6.67;;
6342;SDS011;3204;42.698;23.298;2024-01-07T04:55:59;11.80;;;9.10;;
6342;SDS011;3204;42.698;23.298;2024-01-07T04:58:24;20.03;;;11.07;;
6342;SDS011;3204;42.698;23.298;2024-01-07T05:00:50;11.13;;;9.50;;
6342;SDS011;3204;42.698;23.298;2024-01-07T05:03:15;12.87;;;10.43;;
6342;SDS011;3204;42.698;23.298;2024-01-07T05:05:41;21.27;;;14.40;;
6342;SDS011;3204;42.698;23.298;2024-01-07T05:08:06;12.53;;;11.27;;
6342;SDS011;3204;42.698;23.298;2024-01-07T05:10:32;9.63;;;8.73;;
6342;SDS011;3204;42.698;23.298;2024-01-07T05:12:57;9.90;;;8.90;;
6342;SDS011;3204;42.698;23.298;2024-01-07T05:15:23;10.40;;;9.40;;
6342;SDS011;3204;42.698;23.298;2024-01-07T05:17:48;11.00;;;9.90;;
6342;SDS011;3204;42.698;23.298;2024-01-07T05:20:17;10.33;;;9.30;;
6342;SDS011;3204;42.698;23.298;2024-01-07T05:22:42;11.30;;;10.10;;
6342;SDS011;3204;42.698;23.298;2024-01-07T05:25:08;11.07;;;9.70;;
6342;SDS011;3204;42.698;23.298;2024-01-07T05:27:34;11.90;;;10.20;;
6342;SDS011;3204;42.698;23.298;2024-01-07T05:29:59;11.57;;;10.47;;
6342;SDS011;3204;42.698;23.298;2024-01-07T05:32:24;11.00;;;9.97;;
6342;SDS011;3204;42.698;23.298;2024-01-07T05:34:50;10.43;;;9.37;;
6342;SDS011;3204;42.698;23.298;2024-01-07T05:37:15;11.57;;;10.43;;
6342;SDS011;3204;42.698;23.298;2024-01-07T05:39:40;13.47;;;9.97;;
6342;SDS011;3204;42.698;23.298;2024-01-07T05:42:06;11.87;;;10.23;;
6342;SDS011;3204;42.698;23.298;2024-01-07T05:44:31;11.67;;;10.67;;
6342;SDS011;3204;42.698;23.298;2024-01-07T05:46:57;11.67;;;10.40;;
6342;SDS011;3204;42.698;23.298;2024-01-07T05:49:22;14.13;;;10.53;;
6342;SDS011;3204;42.698;23.298;2024-01-07T05:51:47;11.67;;;10.57;;
6342;SDS011;3204;42.698;23.298;2024-01-07T05:54:13;11.40;;;10.13;;
6342;SDS011;3204;42.698;23.298;2024-01-07T05:56:39;17.17;;;10.27;;
6342;SDS011;3204;42.698;23.298;2024-01-07T05:59:05;10.67;;;9.57;;
6342;SDS011;3204;42.698;23.298;2024-01-07T06:01:31;11.37;;;10.20;;
6342;SDS011;3204;42.698;23.298;2024-01-07T06:03:56;11.03;;;9.70;;
6342;SDS011;3204;42.698;23.298;2024-01-07T06:06:21;12.27;;;9.80;;
6342;SDS011;3204;42.698;23.298;2024-01-07T06:08:47;16.13;;;10.20;;
6342;SDS011;3204;42.698;23.298;2024-01-07T06:11:12;12.80;;;9.47;;
6342;SDS011;3204;42.698;23.298;2024-01-07T06:13:43;11.97;;;9.70;;
6342;SDS011;3204;42.698;23.298;2024-01-07T06:16:09;10.90;;;9.50;;
6342;SDS011;3204;42.698;23.298;2024-01-07T06:18:34;10.90;;;9.50;;
6342;SDS011;3204;42.698;23.298;2024-01-07T06:20:59;9.83;;;8.90;;
6342;SDS011;3204;42.698;23.298;2024-01-07T06:23:25;13.00;;;9.57;;
6342;SDS011;3204;42.698;23.298;2024-01-07T06:25:50;9.57;;;8.70;;
6342;SDS011;3204;42.698;23.298;2024-01-07T06:28:15;10.33;;;9.33;;
6342;SDS011;3204;42.698;23.298;2024-01-07T06:30:41;10.97;;;9.33;;
6342;SDS011;3204;42.698;23.298;2024-01-07T06:33:06;10.83;;;9.83;;
6342;SDS011;3204;42.698;23.298;2024-01-07T06:35:32;13.73;;;11.87;;
6342;SDS011;3204;42.698;23.298;2024-01-07T06:37:57;12.50;;;10.93;;
6342;SDS011;3204;42.698;23.298;2024-01-07T06:40:22;11.27;;;10.20;;
6342;SDS011;3204;42.698;23.298;2024-01-07T06:42:48;12.53;;;11.27;;
6342;SDS011;3204;42.698;23.298;2024-01-07T06:45:14;15.97;;;13.50;;
6342;SDS011;3204;42.698;23.298;2024-01-07T06:47:40;24.07;;;17.53;;
6342;SDS011;3204;42.698;23.298;2024-01-07T06:50:06;23.27;;;15.57;;
6342;SDS011;3204;42.698;23.298;2024-01-07T06:52:32;22.83;;;14.47;;
6342;SDS011;3204;42.698;23.298;2024-01-07T06:54:57;19.77;;;13.50;;
6342;SDS011;3204;42.698;23.298;2024-01-07T06:57:22;17.17;;;13.37;;
6342;SDS011;3204;42.698;23.298;2024-01-07T06:59:48;18.00;;;13.77;;
6342;SDS011;3204;42.698;23.298;2024-01-07T07:02:13;13.53;;;12.10;;
6342;SDS011;3204;42.698;23.298;2024-01-07T07:04:39;15.43;;;11.07;;
6342;SDS011;3204;42.698;23.298;2024-01-07T07:07:04;17.80;;;12.60;;
6342;SDS011;3204;42.698;23.298;2024-01-07T07:09:29;12.67;;;10.97;;
6342;SDS011;3204;42.698;23.298;2024-01-07T07:11:55;12.77;;;11.47;;
6342;SDS011;3204;42.698;23.298;2024-01-07T07:14:20;16.00;;;11.47;;
6342;SDS011;3204;42.698;23.298;2024-01-07T07:16:45;11.20;;;9.70;;
6342;SDS011;3204;42.698;23.298;2024-01-07T07:19:11;10.60;;;9.50;;
6342;SDS011;3204;42.698;23.298;2024-01-07T07:21:39;13.20;;;10.87;;
6342;SDS011;3204;42.698;23.298;2024-01-07T07:24:05;11.80;;;10.63;;
6342;SDS011;3204;42.698;23.298;2024-01-07T07:26:31;15.20;;;11.87;;
6342;SDS011;3204;42.698;23.298;2024-01-07T07:28:56;10.33;;;9.33;;
6342;SDS011;3204;42.698;23.298;2024-01-07T07:31:22;12.40;;;11.27;;
6342;SDS011;3204;42.698;23.298;2024-01-07T07:33:48;13.90;;;11.50;;
6342;SDS011;3204;42.698;23.298;2024-01-07T07:36:14;15.80;;;13.07;;
6342;SDS011;3204;42.698;23.298;2024-01-07T07:38:40;17.00;;;12.67;;
6342;SDS011;3204;42.698;23.298;2024-01-07T07:41:05;14.17;;;11.83;;
6342;SDS011;3204;42.698;23.298;2024-01-07T07:43:32;12.97;;;11.50;;
6342;SDS011;3204;42.698;23.298;2024-01-07T07:45:58;13.67;;;11.70;;
6342;SDS011;3204;42.698;23.298;2024-01-07T07:48:24;16.33;;;12.77;;
6342;SDS011;3204;42.698;23.298;2024-01-07T07:50:51;16.90;;;12.67;;
6342;SDS011;3204;42.698;23.298;2024-01-07T07:53:16;16.20;;;13.57;;
6342;SDS011;3204;42.698;23.298;2024-01-07T07:55:42;18.47;;;13.13;;
6342;SDS011;3204;42.698;23.298;2024-01-07T07:58:07;18.47;;;15.20;;
6342;SDS011;3204;42.698;23.298;2024-01-07T08:00:33;20.40;;;14.33;;
6342;SDS011;3204;42.698;23.298;2024-01-07T08:02:58;15.73;;;13.23;;
6342;SDS011;3204;42.698;23.298;2024-01-07T08:05:24;19.50;;;12.60;;
6342;SDS011;3204;42.698;23.298;2024-01-07T08:07:49;16.97;;;13.07;;
6342;SDS011;3204;42.698;23.298;2024-01-07T08:10:15;14.30;;;12.83;;
6342;SDS011;3204;42.698;23.298;2024-01-07T08:12:41;16.53;;;13.47;;
6342;SDS011;3204;42.698;23.298;2024-01-07T08:15:06;15.23;;;13.63;;
6342;SDS011;3204;42.698;23.298;2024-01-07T08:17:32;16.43;;;13.53;;
6342;SDS011;3204;42.698;23.298;2024-01-07T08:19:58;18.20;;;14.50;;
6342;SDS011;3204;42.698;23.298;2024-01-07T08:22:24;15.27;;;13.67;;
6342;SDS011;3204;42.698;23.298;2024-01-07T08:24:50;14.73;;;13.27;;
6342;SDS011;3204;42.698;23.298;2024-01-07T08:27:16;15.47;;;13.47;;
6342;SDS011;3204;42.698;23.298;2024-01-07T08:29:44;17.00;;;13.97;;
6342;SDS011;3204;42.698;23.298;2024-01-07T08:32:10;19.60;;;14.20;;
6342;SDS011;3204;42.698;23.298;2024-01-07T08:34:37;17.13;;;15.27;;
6342;SDS011;3204;42.698;23.298;2024-01-07T08:37:03;18.27;;;14.77;;
6342;SDS011;3204;42.698;23.298;2024-01-07T08:39:29;18.47;;;15.23;;
6342;SDS011;3204;42.698;23.298;2024-01-07T08:41:55;18.37;;;14.97;;
6342;SDS011;3204;42.698;23.298;2024-01-07T08:44:20;15.70;;;13.37;;
6342;SDS011;3204;42.698;23.298;2024-01-07T08:46:45;16.03;;;14.33;;
6342;SDS011;3204;42.698;23.298;2024-01-07T08:49:11;16.90;;;14.90;;
6342;SDS011;3204;42.698;23.298;2024-01-07T08:51:36;18.97;;;15.70;;
6342;SDS011;3204;42.698;23.298;2024-01-07T08:54:03;16.30;;;14.10;;
6342;SDS011;3204;42.698;23.298;2024-01-07T08:56:28;21.73;;;14.73;;
6342;SDS011;3204;42.698;23.298;2024-01-07T08:58:54;22.17;;;16.37;;
6342;SDS011;3204;42.698;23.298;2024-01-07T09:01:19;18.97;;;15.50;;
6342;SDS011;3204;42.698;23.298;2024-01-07T09:03:45;13.57;;;12.27;;
6342;SDS011;3204;42.698;23.298;2024-01-07T09:06:10;16.47;;;12.40;;
6342;SDS011;3204;42.698;23.298;2024-01-07T09:08:35;14.43;;;12.77;;
6342;SDS011;3204;42.698;23.298;2024-01-07T09:11:03;16.50;;;12.80;;
6342;SDS011;3204;42.698;23.298;2024-01-07T09:13:29;16.37;;;13.73;;
6342;SDS011;3204;42.698;23.298;2024-01-07T09:15:54;14.73;;;13.23;;
6342;SDS011;3204;42.698;23.298;2024-01-07T09:18:20;20.83;;;13.70;;
6342;SDS011;3204;42.698;23.298;2024-01-07T09:20:46;14.83;;;13.23;;
6342;SDS011;3204;42.698;23.298;2024-01-07T09:23:12;17.10;;;15.18;;
6342;SDS011;3204;42.698;23.298;2024-01-07T09:25:37;16.73;;;15.03;;
6342;SDS011;3204;42.698;23.298;2024-01-07T09:28:02;16.97;;;14.03;;
6342;SDS011;3204;42.698;23.298;2024-01-07T09:30:29;14.70;;;13.20;;
6342;SDS011;3204;42.698;23.298;2024-01-07T09:32:54;14.17;;;12.63;;
6342;SDS011;3204;42.698;23.298;2024-01-07T09:35:19;14.02;;;12.35;;
6342;SDS011;3204;42.698;23.298;2024-01-07T09:37:45;14.02;;;12.57;;
6342;SDS011;3204;42.698;23.298;2024-01-07T09:40:10;16.60;;;12.38;;
6342;SDS011;3204;42.698;23.298;2024-01-07T09:42:37;13.95;;;12.52;;
6342;SDS011;3204;42.698;23.298;2024-01-07T09:45:02;16.48;;;12.43;;
6342;SDS011;3204;42.698;23.298;2024-01-07T09:47:29;14.00;;;12.07;;
6342;SDS011;3204;42.698;23.298;2024-01-07T09:49:55;13.07;;;11.68;;
6342;SDS011;3204;42.698;23.298;2024-01-07T09:52:20;13.80;;;12.30;;
6342;SDS011;3204;42.698;23.298;2024-01-07T09:54:46;13.95;;;12.57;;
6342;SDS011;3204;42.698;23.298;2024-01-07T09:57:16;12.45;;;11.15;;
6342;SDS011;3204;42.698;23.298;2024-01-07T09:59:42;12.45;;;11.23;;
6342;SDS011;3204;42.698;23.298;2024-01-07T10:02:08;10.65;;;9.85;;
6342;SDS011;3204;42.698;23.298;2024-01-07T10:04:34;12.50;;;11.30;;
6342;SDS011;3204;42.698;23.298;2024-01-07T10:07:00;13.63;;;11.20;;
6342;SDS011;3204;42.698;23.298;2024-01-07T10:09:29;13.25;;;11.05;;
6342;SDS011;3204;42.698;23.298;2024-01-07T10:11:55;12.18;;;10.95;;
6342;SDS011;3204;42.698;23.298;2024-01-07T10:14:20;12.05;;;11.05;;
6342;SDS011;3204;42.698;23.298;2024-01-07T10:16:50;8.48;;;7.88;;
6342;SDS011;3204;42.698;23.298;2024-01-07T10:19:20;9.45;;;8.68;;
6342;SDS011;3204;42.698;23.298;2024-01-07T10:21:46;9.32;;;8.55;;
6342;SDS011;3204;42.698;23.298;2024-01-07T10:24:12;9.75;;;9.02;;
6342;SDS011;3204;42.698;23.298;2024-01-07T10:26:38;10.32;;;9.43;;
6342;SDS011;3204;42.698;23.298;2024-01-07T10:29:05;8.13;;;7.45;;
6342;SDS011;3204;42.698;23.298;2024-01-07T10:31:34;7.00;;;6.30;;
6342;SDS011;3204;42.698;23.298;2024-01-07T10:34:02;6.68;;;6.05;;
6342;SDS011;3204;42.698;23.298;2024-01-07T10:36:28;9.40;;;7.05;;
6342;SDS011;3204;42.698;23.298;2024-01-07T10:38:55;8.52;;;7.13;;
6342;SDS011;3204;42.698;23.298;2024-01-07T10:41:21;8.52;;;7.63;;
6342;SDS011;3204;42.698;23.298;2024-01-07T10:43:47;7.75;;;7.07;;
6342;SDS011;3204;42.698;23.298;2024-01-07T10:46:13;7.43;;;6.70;;
6342;SDS011;3204;42.698;23.298;2024-01-07T10:48:47;9.68;;;7.07;;
6342;SDS011;3204;42.698;23.298;2024-01-07T10:51:18;8.02;;;7.20;;
6342;SDS011;3204;42.698;23.298;2024-01-07T10:53:46;7.10;;;6.50;;
6342;SDS011;3204;42.698;23.298;2024-01-07T10:56:23;7.75;;;6.97;;
6342;SDS011;3204;42.698;23.298;2024-01-07T10:58:52;8.50;;;7.70;;
6342;SDS011;3204;42.698;23.298;2024-01-07T11:01:22;5.20;;;4.78;;
6342;SDS011;3204;42.698;23.298;2024-01-07T11:07:03;9.65;;;8.75;;
6342;SDS011;3204;42.698;23.298;2024-01-07T11:09:37;8.98;;;8.15;;
6342;SDS011;3204;42.698;23.298;2024-01-07T11:12:10;8.68;;;7.65;;
6342;SDS011;3204;42.698;23.298;2024-01-07T11:14:37;6.70;;;6.20;;
6342;SDS011;3204;42.698;23.298;2024-01-07T11:17:05;6.63;;;6.10;;
6342;SDS011;3204;42.698;23.298;2024-01-07T11:19:37;6.82;;;6.20;;
6342;SDS011;3204;42.698;23.298;2024-01-07T11:24:49;5.20;;;4.78;;
6342;SDS011;3204;42.698;23.298;2024-01-07T11:27:16;5.20;;;4.80;;
6342;SDS011;3204;42.698;23.298;2024-01-07T11:29:41;6.35;;;4.70;;
6342;SDS011;3204;42.698;23.298;2024-01-07T11:32:07;5.97;;;5.47;;
6342;SDS011;3204;42.698;23.298;2024-01-07T11:34:39;6.05;;;5.53;;
6342;SDS011;3204;42.698;23.298;2024-01-07T11:37:17;5.38;;;4.97;;
6342;SDS011;3204;42.698;23.298;2024-01-07T11:39:42;5.43;;;4.95;;
6342;SDS011;3204;42.698;23.298;2024-01-07T11:42:12;4.53;;;4.22;;
6342;SDS011;3204;42.698;23.298;2024-01-07T11:44:44;4.47;;;4.28;;
6342;SDS011;3204;42.698;23.298;2024-01-07T11:47:12;5.50;;;5.00;;
6342;SDS011;3204;42.698;23.298;2024-01-07T11:49:38;5.60;;;5.20;;
6342;SDS011;3204;42.698;23.298;2024-01-07T11:52:04;4.70;;;4.40;;
6342;SDS011;3204;42.698;23.298;2024-01-07T11:54:30;5.00;;;4.60;;
6342;SDS011;3204;42.698;23.298;2024-01-07T11:56:56;5.32;;;4.93;;
6342;SDS011;3204;42.698;23.298;2024-01-07T11:59:22;4.88;;;4.47;;
6342;SDS011;3204;42.698;23.298;2024-01-07T12:01:48;4.65;;;4.35;;
6342;SDS011;3204;42.698;23.298;2024-01-07T12:04:13;7.80;;;5.88;;
6342;SDS011;3204;42.698;23.298;2024-01-07T12:06:39;4.43;;;4.18;;
6342;SDS011;3204;42.698;23.298;2024-01-07T12:09:05;5.00;;;4.70;;
6342;SDS011;3204;42.698;23.298;2024-01-07T12:11:31;8.25;;;7.45;;
6342;SDS011;3204;42.698;23.298;2024-01-07T12:13:56;7.80;;;6.97;;
6342;SDS011;3204;42.698;23.298;2024-01-07T12:16:22;10.75;;;6.50;;
6342;SDS011;3204;42.698;23.298;2024-01-07T12:18:48;5.85;;;5.35;;
6342;SDS011;3204;42.698;23.298;2024-01-07T12:21:18;6.78;;;5.90;;
6342;SDS011;3204;42.698;23.298;2024-01-07T12:23:48;7.70;;;5.63;;
6342;SDS011;3204;42.698;23.298;2024-01-07T12:26:15;6.10;;;5.60;;
6342;SDS011;3204;42.698;23.298;2024-01-07T12:28:42;9.18;;;6.18;;
6342;SDS011;3204;42.698;23.298;2024-01-07T12:31:07;6.45;;;5.85;;
6342;SDS011;3204;42.698;23.298;2024-01-07T12:33:34;11.02;;;6.57;;
6342;SDS011;3204;42.698;23.298;2024-01-07T12:36:02;5.75;;;5.45;;
6342;SDS011;3204;42.698;23.298;2024-01-07T12:38:28;6.70;;;5.90;;
6342;SDS011;3204;42.698;23.298;2024-01-07T12:40:53;5.05;;;4.75;;
6342;SDS011;3204;42.698;23.298;2024-01-07T12:43:19;7.72;;;5.50;;
6342;SDS011;3204;42.698;23.298;2024-01-07T12:45:45;40.08;;;8.88;;
6342;SDS011;3204;42.698;23.298;2024-01-07T12:48:11;11.60;;;6.40;;
6342;SDS011;3204;42.698;23.298;2024-01-07T12:50:37;6.93;;;6.05;;
6342;SDS011;3204;42.698;23.298;2024-01-07T12:53:02;29.58;;;8.38;;
6342;SDS011;3204;42.698;23.298;2024-01-07T12:55:28;9.73;;;6.53;;
6342;SDS011;3204;42.698;23.298;2024-01-07T12:57:54;15.95;;;6.97;;
6342;SDS011;3204;42.698;23.298;2024-01-07T13:00:20;7.53;;;6.78;;
6342;SDS011;3204;42.698;23.298;2024-01-07T13:02:46;10.95;;;6.38;;
6342;SDS011;3204;42.698;23.298;2024-01-07T13:05:11;9.27;;;6.70;;
6342;SDS011;3204;42.698;23.298;2024-01-07T13:07:38;11.82;;;6.72;;
6342;SDS011;3204;42.698;23.298;2024-01-07T13:10:03;16.95;;;6.78;;
6342;SDS011;3204;42.698;23.298;2024-01-07T13:12:29;8.88;;;7.05;;
6342;SDS011;3204;42.698;23.298;2024-01-07T13:14:54;12.75;;;7.20;;
6342;SDS011;3204;42.698;23.298;2024-01-07T13:17:20;8.65;;;6.72;;
6342;SDS011;3204;42.698;23.298;2024-01-07T13:19:45;10.82;;;8.82;;
6342;SDS011;3204;42.698;23.298;2024-01-07T13:22:11;7.45;;;6.72;;
6342;SDS011;3204;42.698;23.298;2024-01-07T13:24:36;6.47;;;5.93;;
6342;SDS011;3204;42.698;23.298;2024-01-07T13:27:02;7.20;;;6.57;;
6342;SDS011;3204;42.698;23.298;2024-01-07T13:29:27;7.90;;;7.20;;
6342;SDS011;3204;42.698;23.298;2024-01-07T13:31:53;12.13;;;7.40;;
6342;SDS011;3204;42.698;23.298;2024-01-07T13:34:18;12.07;;;7.78;;
6342;SDS011;3204;42.698;23.298;2024-01-07T13:36:44;8.93;;;7.35;;
6342;SDS011;3204;42.698;23.298;2024-01-07T13:39:09;8.88;;;8.02;;
6342;SDS011;3204;42.698;23.298;2024-01-07T13:41:35;12.93;;;6.25;;
6342;SDS011;3204;42.698;23.298;2024-01-07T13:44:01;11.75;;;7.68;;
6342;SDS011;3204;42.698;23.298;2024-01-07T13:46:28;8.65;;;7.82;;
6342;SDS011;3204;42.698;23.298;2024-01-07T13:48:53;9.13;;;7.63;;
6342;SDS011;3204;42.698;23.298;2024-01-07T13:51:19;7.10;;;6.53;;
6342;SDS011;3204;42.698;23.298;2024-01-07T13:53:45;8.50;;;7.80;;
6342;SDS011;3204;42.698;23.298;2024-01-07T13:56:13;9.07;;;8.18;;
6342;SDS011;3204;42.698;23.298;2024-01-07T13:58:38;15.60;;;12.13;;
6342;SDS011;3204;42.698;23.298;2024-01-07T14:01:04;10.00;;;8.75;;
6342;SDS011;3204;42.698;23.298;2024-01-07T14:03:30;16.52;;;13.23;;
6342;SDS011;3204;42.698;23.298;2024-01-07T14:05:57;12.65;;;11.00;;
6342;SDS011;3204;42.698;23.298;2024-01-07T14:08:23;9.25;;;8.45;;
6342;SDS011;3204;42.698;23.298;2024-01-07T14:10:49;9.70;;;8.70;;
6342;SDS011;3204;42.698;23.298;2024-01-07T14:13:14;10.63;;;9.02;;
6342;SDS011;3204;42.698;23.298;2024-01-07T14:15:39;12.50;;;10.35;;
6342;SDS011;3204;42.698;23.298;2024-01-07T14:18:05;12.20;;;10.45;;
6342;SDS011;3204;42.698;23.298;2024-01-07T14:20:31;9.85;;;8.88;;
6342;SDS011;3204;42.698;23.298;2024-01-07T14:22:56;11.88;;;9.35;;
6342;SDS011;3204;42.698;23.298;2024-01-07T14:25:22;17.88;;;11.52;;
6342;SDS011;3204;42.698;23.298;2024-01-07T14:27:47;16.25;;;11.68;;
6342;SDS011;3204;42.698;23.298;2024-01-07T14:30:13;15.23;;;11.77;;
6342;SDS011;3204;42.698;23.298;2024-01-07T14:32:39;22.60;;;16.60;;
6342;SDS011;3204;42.698;23.298;2024-01-07T14:35:05;38.25;;;24.63;;
6342;SDS011;3204;42.698;23.298;2024-01-07T14:37:32;42.85;;;25.55;;
6342;SDS011;3204;42.698;23.298;2024-01-07T14:39:57;40.28;;;25.25;;
6342;SDS011;3204;42.698;23.298;2024-01-07T14:42:22;33.25;;;22.27;;
6342;SDS011;3204;42.698;23.298;2024-01-07T14:44:48;33.92;;;21.40;;